createdAt,value
2023-05-23T16:26:05.012Z,1010.74
2023-05-23T16:29:14.219Z,1010.60
2023-05-23T16:32:22.778Z,1010.78
2023-05-23T16:35:31.369Z,1010.78
2023-05-23T16:38:41.327Z,1010.62
2023-05-23T16:41:49.250Z,1010.72
2023-05-23T16:44:57.087Z,1010.67
2023-05-23T16:48:06.449Z,1010.68
2023-05-23T16:51:13.371Z,1010.78
2023-05-23T16:54:21.476Z,1010.82
2023-05-23T16:57:30.070Z,1010.71
2023-05-23T17:00:37.618Z,1010.86
2023-05-23T17:03:45.936Z,1010.88
2023-05-23T17:06:54.817Z,1011.03
2023-05-23T17:10:02.582Z,1010.89
2023-05-23T17:13:10.211Z,1010.96
2023-05-23T17:16:20.263Z,1010.86
2023-05-23T17:19:19.210Z,1010.94
2023-05-23T17:22:26.968Z,1010.97
2023-05-23T17:25:34.230Z,1010.99
2023-05-23T17:28:43.358Z,1011.02
2023-05-23T17:31:50.570Z,1011.07
2023-05-23T17:34:58.416Z,1011.01
2023-05-23T17:38:06.723Z,1011.19
2023-05-23T17:41:14.646Z,1011.13
2023-05-23T17:44:22.928Z,1011.17
2023-05-23T17:47:32.299Z,1011.19
2023-05-23T17:50:39.499Z,1011.13
2023-05-23T17:53:47.299Z,1011.35
2023-05-23T17:56:54.641Z,1011.35
2023-05-23T18:00:03.811Z,1011.31
2023-05-23T18:03:11.525Z,1011.30
2023-05-23T18:06:19.486Z,1011.29
2023-05-23T18:09:28.909Z,1011.42
2023-05-23T18:12:37.265Z,1011.47
2023-05-23T18:15:44.283Z,1011.53
2023-05-23T18:18:53.222Z,1011.53
2023-05-23T18:22:00.651Z,1011.61
2023-05-23T18:25:08.139Z,1011.74
2023-05-23T18:28:17.659Z,1011.69
2023-05-23T18:31:20.449Z,1011.80
2023-05-23T18:34:29.269Z,1011.85
2023-05-23T18:37:37.503Z,1011.79
2023-05-23T18:40:46.870Z,1011.88
2023-05-23T18:43:54.764Z,1011.88
2023-05-23T18:47:02.817Z,1011.90
2023-05-23T18:50:11.726Z,1011.94
2023-05-23T18:53:19.465Z,1012.05
2023-05-23T18:56:26.826Z,1012.01
2023-05-23T18:59:35.971Z,1012.01
2023-05-23T19:02:43.222Z,1012.10
2023-05-23T19:05:50.981Z,1012.15
2023-05-23T19:08:59.720Z,1012.31
2023-05-23T19:12:07.864Z,1012.43
2023-05-23T19:15:15.719Z,1012.40
2023-05-23T19:18:23.316Z,1012.46
2023-05-23T19:21:32.094Z,1012.57
2023-05-23T19:24:40.552Z,1012.56
2023-05-23T19:27:47.954Z,1012.61
2023-05-23T19:30:49.087Z,1012.66
2023-05-23T19:33:56.416Z,1012.65
2023-05-23T19:37:03.876Z,1012.72
2023-05-23T19:40:13.020Z,1012.78
2023-05-23T19:43:20.285Z,1012.75
2023-05-23T19:46:28.413Z,1012.78
2023-05-23T19:49:37.102Z,1012.84
2023-05-23T19:52:44.933Z,1012.91
2023-05-23T19:55:53.040Z,1012.95
2023-05-23T19:59:00.396Z,1012.92
2023-05-23T20:02:10.195Z,1012.90
2023-05-23T20:05:17.500Z,1012.95
2023-05-23T20:08:25.287Z,1013.14
2023-05-23T20:11:33.716Z,1013.12
2023-05-23T20:14:41.383Z,1013.18
2023-05-23T20:17:49.162Z,1013.24
2023-05-23T20:20:58.377Z,1013.22
2023-05-23T20:24:06.341Z,1013.30
2023-05-23T20:27:14.512Z,1013.31
2023-05-23T20:30:24.504Z,1013.35
2023-05-23T20:33:31.865Z,1013.38
2023-05-23T20:36:39.494Z,1013.47
2023-05-23T20:39:49.093Z,1013.49
2023-05-23T20:42:56.389Z,1013.51
2023-05-23T20:46:04.296Z,1013.51
2023-05-23T20:49:12.087Z,1013.52
2023-05-23T20:52:21.248Z,1013.57
2023-05-23T20:55:29.267Z,1013.51
2023-05-23T20:58:37.173Z,1013.57
2023-05-23T21:01:46.076Z,1013.51
2023-05-23T21:04:54.042Z,1013.59
2023-05-23T21:08:01.950Z,1013.62
2023-05-23T21:11:11.093Z,1013.64
2023-05-23T21:14:18.312Z,1013.60
2023-05-23T21:17:26.063Z,1013.73
2023-05-23T21:20:35.114Z,1013.76
2023-05-23T21:23:42.042Z,1013.80
2023-05-23T21:26:50.384Z,1013.82
2023-05-23T21:29:58.427Z,1013.88
2023-05-23T21:33:07.759Z,1013.80
2023-05-23T21:36:15.335Z,1013.84
2023-05-23T21:39:23.409Z,1013.76
2023-05-23T21:42:31.745Z,1013.83
2023-05-23T21:45:40.574Z,1013.74
2023-05-23T21:48:48.517Z,1013.81
2023-05-23T21:51:57.347Z,1013.82
2023-05-23T21:55:05.032Z,1013.84
2023-05-23T21:58:12.869Z,1013.89
2023-05-23T22:01:21.592Z,1013.88
2023-05-23T22:04:29.652Z,1013.92
2023-05-23T22:07:37.277Z,1013.88
2023-05-23T22:11:23.176Z,1013.91
2023-05-23T22:14:32.873Z,1014.00
2023-05-23T22:17:40.696Z,1013.98
2023-05-23T22:20:48.163Z,1013.97
2023-05-23T22:23:57.436Z,1013.99
2023-05-23T22:27:05.815Z,1013.97
2023-05-23T22:30:12.832Z,1014.00
2023-05-23T22:33:22.708Z,1013.97
2023-05-23T22:36:30.172Z,1014.01
2023-05-23T22:39:37.537Z,1013.99
2023-05-23T22:42:46.786Z,1013.92
2023-05-23T22:45:53.807Z,1013.93
2023-05-23T22:49:01.713Z,1013.93
2023-05-23T22:52:10.496Z,1013.89
2023-05-23T22:55:18.088Z,1013.91
2023-05-23T22:58:24.904Z,1013.89
2023-05-23T23:01:32.771Z,1013.88
2023-05-23T23:04:41.537Z,1013.90
2023-05-23T23:07:48.788Z,1013.88
2023-05-23T23:10:55.805Z,1013.94
2023-05-23T23:14:04.789Z,1013.91
2023-05-23T23:17:12.574Z,1013.95
2023-05-23T23:20:19.633Z,1013.91
2023-05-23T23:23:28.748Z,1013.96
2023-05-23T23:26:35.990Z,1013.97
2023-05-23T23:29:43.830Z,1013.92
2023-05-23T23:32:53.052Z,1014.03
2023-05-23T23:35:59.867Z,1014.01
2023-05-23T23:39:07.662Z,1013.97
2023-05-23T23:42:15.278Z,1014.01
2023-05-23T23:45:24.384Z,1013.98
2023-05-23T23:48:32.118Z,1014.01
2023-05-23T23:51:39.415Z,1014.06
2023-05-23T23:54:48.657Z,1013.96
2023-05-23T23:57:56.048Z,1014.03
